Argyle, Florida
Current Conditions -  °F | °C
As of 6:55 PM on Saturday 22 Nov 2014 (Local Time) from K54J Reporting Station
Drizzle Drizzle  
Wind Chill: 58°   Ceiling: 300
Heat Index: 58°   Visibility: 5mi
Dew Point: 58°   Wind: 9mph
Humidity: 99%   Direction: 60°ENE
Pressure: 30.11"   Gusts: NA
Location:  30.72°N, 86.04°W
Report Text: K54J 230055Z AUTO 06008KT 5SM -DZ OVC003 15/15 A3011 RMK AO2 T01470145
Loading
Personal Weather Stations






























Interactive Weather Map New forecast layout! Learn more

10-Day Weather Forecast

Advertisements
Track Severe Weather on mobile